Time;durP1;ratioP1;P1;durP2;ratioP2;P2;SDS_P1;SDS_P2;PMS_P1;PMS_P2;Temp;Humidity;BMP_temperature;BMP_pressure;BME280_temperature;BME280_humidity;BME280_pressure;Samples;Min_cycle;Max_cycle;Signal;HPM_P1;HPM_P2
2022/10/05 00:00:22;;;;;;;16.70;15.13;;;11.30;96.50;;;;;;4994256;28;20482;-70
2022/10/05 00:02:51;;;;;;;17.23;15.83;;;11.30;96.20;;;;;;5008701;28;20460;-70
2022/10/05 00:05:26;;;;;;;16.80;15.70;;;11.30;96.00;;;;;;4999703;28;20496;-70
2022/10/05 00:07:53;;;;;;;16.40;15.30;;;11.30;95.80;;;;;;5003709;28;20864;-70
2022/10/05 00:10:21;;;;;;;16.70;15.50;;;11.30;95.90;;;;;;4997027;28;20818;-70
2022/10/05 00:12:49;;;;;;;16.80;15.60;;;11.30;95.90;;;;;;5010681;28;20462;-70
2022/10/05 00:15:19;;;;;;;17.90;16.50;;;11.30;95.80;;;;;;5006530;28;20468;-70
2022/10/05 00:17:46;;;;;;;16.97;15.77;;;11.30;95.70;;;;;;5008033;28;20479;-70
2022/10/05 00:20:20;;;;;;;17.47;16.23;;;11.40;95.60;;;;;;5004614;28;20487;-70
2022/10/05 00:22:47;;;;;;;17.30;15.90;;;11.40;95.30;;;;;;4993279;28;20971;-70
2022/10/05 00:25:18;;;;;;;17.60;16.40;;;11.40;95.10;;;;;;4993982;28;20471;-69
2022/10/05 00:27:53;;;;;;;17.47;16.37;;;11.40;95.10;;;;;;5005361;28;20468;-70
2022/10/05 00:30:23;;;;;;;17.80;16.20;;;11.40;95.00;;;;;;5006996;28;20458;-70
2022/10/05 00:32:50;;;;;;;17.67;16.37;;;11.40;95.10;;;;;;4996718;28;20467;-70
2022/10/05 00:35:18;;;;;;;17.10;16.00;;;11.30;95.10;;;;;;5001093;28;20467;-70
2022/10/05 00:37:47;;;;;;;18.30;16.90;;;11.30;95.20;;;;;;5007325;28;20457;-70
2022/10/05 00:40:30;;;;;;;17.40;15.93;;;11.30;95.20;;;;;;4996899;28;20481;-70
2022/10/05 00:43:07;;;;;;;16.80;15.70;;;11.30;95.20;;;;;;4997191;28;20921;-71
2022/10/05 00:45:41;;;;;;;18.50;17.00;;;11.30;95.20;;;;;;5003520;28;20466;-70
2022/10/05 00:48:20;;;;;;;16.93;15.90;;;11.20;95.80;;;;;;5012639;28;20457;-70
2022/10/05 00:51:05;;;;;;;17.07;16.00;;;11.30;95.40;;;;;;5004226;28;20475;-70
2022/10/05 00:53:41;;;;;;;16.97;15.77;;;11.20;95.60;;;;;;4998602;28;20582;-70
2022/10/05 00:56:18;;;;;;;17.80;16.60;;;11.20;95.60;;;;;;4992801;28;20461;-69
2022/10/05 00:58:56;;;;;;;17.57;16.13;;;11.20;95.30;;;;;;4999959;28;21480;-70
2022/10/05 01:01:31;;;;;;;16.77;15.57;;;11.20;95.40;;;;;;4993974;28;20469;-70
2022/10/05 01:04:13;;;;;;;17.20;16.10;;;11.10;95.30;;;;;;5003232;28;20884;-69
2022/10/05 01:06:49;;;;;;;17.10;15.93;;;11.10;95.40;;;;;;5006166;28;20815;-70
2022/10/05 01:09:26;;;;;;;16.67;15.57;;;11.10;95.30;;;;;;5007196;28;20465;-70
2022/10/05 01:12:01;;;;;;;16.57;15.57;;;11.00;95.40;;;;;;4992804;28;20473;-70
2022/10/05 01:14:34;;;;;;;17.50;16.20;;;11.00;95.60;;;;;;5002144;28;20490;-69
2022/10/05 01:17:08;;;;;;;17.60;16.30;;;11.00;95.60;;;;;;5003906;28;20461;-70
2022/10/05 01:20:06;;;;;;;16.30;15.13;;;10.90;95.70;;;;;;5006001;28;20479;-70
2022/10/05 01:22:50;;;;;;;17.67;16.10;;;11.00;95.70;;;;;;4991583;28;20556;-69
2022/10/05 01:25:25;;;;;;;16.90;15.80;;;10.90;95.80;;;;;;5003261;28;20546;-70
2022/10/05 01:28:01;;;;;;;17.17;15.80;;;10.90;95.90;;;;;;5003935;28;20456;-70
2022/10/05 01:30:34;;;;;;;16.87;15.50;;;10.90;96.00;;;;;;4998545;28;20500;-70
2022/10/05 01:33:12;;;;;;;16.83;15.63;;;10.90;96.10;;;;;;4991977;28;20518;-70
2022/10/05 01:35:48;;;;;;;17.17;15.90;;;10.80;96.00;;;;;;5004977;28;20456;-70
2022/10/05 01:38:24;;;;;;;16.93;15.70;;;10.80;96.00;;;;;;4996342;28;20503;-70
2022/10/05 01:40:59;;;;;;;17.77;16.50;;;10.80;96.10;;;;;;4991659;28;20488;-70
2022/10/05 01:43:36;;;;;;;16.93;15.83;;;10.70;96.20;;;;;;4998637;28;20560;-70
2022/10/05 01:46:12;;;;;;;17.70;16.60;;;10.90;96.00;;;;;;5009769;28;21088;-68
2022/10/05 01:48:49;;;;;;;16.57;15.47;;;10.90;95.80;;;;;;5003907;28;20540;-68
2022/10/05 01:51:21;;;;;;;18.27;16.80;;;10.80;95.90;;;;;;4998660;28;20468;-68
2022/10/05 01:54:04;;;;;;;19.40;18.00;;;10.80;96.20;;;;;;5001727;28;20485;-68
2022/10/05 01:56:39;;;;;;;17.27;15.90;;;10.80;96.30;;;;;;4991896;28;20469;-69
2022/10/05 01:59:19;;;;;;;17.97;16.77;;;10.80;96.20;;;;;;5003559;28;20465;-68
2022/10/05 02:01:54;;;;;;;17.97;16.50;;;10.80;96.40;;;;;;5008400;28;20463;-68
2022/10/05 02:04:27;;;;;;;18.63;17.33;;;10.70;96.50;;;;;;4997070;28;20481;-68
2022/10/05 02:06:54;;;;;;;18.17;16.47;;;10.60;96.60;;;;;;4996797;28;20469;-68
2022/10/05 02:09:26;;;;;;;18.30;17.03;;;10.60;96.60;;;;;;5004632;28;20471;-68
2022/10/05 02:11:58;;;;;;;18.60;17.33;;;10.60;96.60;;;;;;4998099;28;20461;-68
2022/10/05 02:14:31;;;;;;;17.40;16.20;;;10.50;96.70;;;;;;4993836;28;20477;-68
2022/10/05 02:17:01;;;;;;;19.07;17.67;;;10.50;97.40;;;;;;4991231;28;20808;-68
2022/10/05 02:19:34;;;;;;;18.77;17.37;;;10.50;97.20;;;;;;5005178;28;20476;-68
2022/10/05 02:22:06;;;;;;;18.63;17.23;;;10.50;97.10;;;;;;4993416;28;20462;-68
2022/10/05 02:24:36;;;;;;;22.87;21.13;;;10.50;97.10;;;;;;4993599;28;20478;-68
2022/10/05 02:27:05;;;;;;;20.47;18.97;;;10.50;96.80;;;;;;5008449;28;20470;-68
2022/10/05 02:29:37;;;;;;;19.57;18.13;;;10.50;96.80;;;;;;4993751;28;20463;-68
2022/10/05 02:32:09;;;;;;;17.53;16.23;;;10.50;96.80;;;;;;4998831;28;20468;-68
2022/10/05 02:34:38;;;;;;;17.70;16.50;;;10.60;96.50;;;;;;4997254;28;20474;-68
2022/10/05 02:37:16;;;;;;;25.00;23.27;;;10.60;96.40;;;;;;5005129;28;20493;-68
2022/10/05 02:39:53;;;;;;;21.90;20.30;;;10.60;96.50;;;;;;4991516;28;20495;-68
2022/10/05 02:42:27;;;;;;;18.77;17.47;;;10.50;96.60;;;;;;5005051;28;21017;-68
2022/10/05 02:45:03;;;;;;;29.00;26.80;;;10.50;96.90;;;;;;4994937;28;20484;-68
2022/10/05 02:47:37;;;;;;;20.37;18.50;;;10.60;96.60;;;;;;4991919;28;20470;-68
2022/10/05 02:50:13;;;;;;;18.13;16.73;;;10.50;96.70;;;;;;4990736;28;20455;-68
2022/10/05 02:52:47;;;;;;;33.67;31.73;;;10.50;97.10;;;;;;5005238;28;20458;-68
2022/10/05 02:55:19;;;;;;;23.27;21.77;;;10.50;97.30;;;;;;5007111;28;20453;-68
2022/10/05 02:57:53;;;;;;;30.23;28.30;;;10.50;97.40;;;;;;4999867;28;20463;-69
2022/10/05 03:00:24;;;;;;;25.23;23.50;;;10.60;97.40;;;;;;5006171;28;21268;-68
2022/10/05 03:02:59;;;;;;;18.30;16.93;;;10.60;97.20;;;;;;4997165;28;20557;-68
2022/10/05 03:05:29;;;;;;;19.33;17.83;;;10.60;97.20;;;;;;5005981;28;20967;-68
2022/10/05 03:08:02;;;;;;;20.47;18.67;;;10.60;97.30;;;;;;5000818;28;20535;-68
2022/10/05 03:10:37;;;;;;;24.97;23.17;;;10.60;97.30;;;;;;4991018;28;20835;-68
2022/10/05 03:13:09;;;;;;;18.20;16.90;;;10.60;97.10;;;;;;5007205;28;20570;-68
2022/10/05 03:15:56;;;;;;;35.80;33.90;;;10.60;97.10;;;;;;4995042;28;20465;-68
2022/10/05 03:18:36;;;;;;;33.70;31.77;;;10.60;97.30;;;;;;4994261;28;20467;-68
2022/10/05 03:21:16;;;;;;;34.03;32.13;;;10.50;97.40;;;;;;5001803;28;20840;-68
2022/10/05 03:23:58;;;;;;;19.57;18.17;;;10.50;97.50;;;;;;4995861;28;20489;-68
2022/10/05 03:26:40;;;;;;;20.80;19.20;;;10.60;97.50;;;;;;5005926;28;20475;-68
2022/10/05 03:29:20;;;;;;;22.50;21.03;;;10.60;97.30;;;;;;5005455;28;20473;-68
2022/10/05 03:31:57;;;;;;;34.00;31.90;;;10.60;97.50;;;;;;4996390;28;20463;-68
2022/10/05 03:34:33;;;;;;;22.10;20.47;;;10.50;97.40;;;;;;4992078;28;20486;-68
2022/10/05 03:37:07;;;;;;;25.07;23.23;;;10.50;97.30;;;;;;4992316;28;20460;-70
2022/10/05 03:39:39;;;;;;;25.33;23.57;;;10.40;97.40;;;;;;4998356;28;20460;-70
2022/10/05 03:42:12;;;;;;;20.53;18.90;;;10.40;97.50;;;;;;4997586;28;20456;-71
2022/10/05 03:44:49;;;;;;;17.30;16.10;;;10.40;97.50;;;;;;4996610;28;20481;-70
2022/10/05 03:47:27;;;;;;;25.30;23.60;;;10.40;97.10;;;;;;5007543;28;20543;-70
2022/10/05 03:50:23;;;;;;;22.03;20.27;;;10.30;96.90;;;;;;4993981;28;20469;-70
2022/10/05 03:52:54;;;;;;;19.03;17.53;;;10.30;97.10;;;;;;4999805;28;20459;-70
2022/10/05 03:55:29;;;;;;;20.77;18.93;;;10.30;97.00;;;;;;5001061;28;20892;-70
2022/10/05 03:57:59;;;;;;;20.80;19.40;;;10.30;97.00;;;;;;4994307;28;20551;-70
2022/10/05 04:00:30;;;;;;;19.50;17.90;;;10.30;97.10;;;;;;5006413;28;20854;-70
2022/10/05 04:03:04;;;;;;;30.00;27.80;;;10.30;97.30;;;;;;4993888;28;20457;-70
2022/10/05 04:05:35;;;;;;;20.97;19.47;;;10.30;97.20;;;;;;5001372;28;20463;-70
2022/10/05 04:08:07;;;;;;;28.50;26.33;;;10.30;97.30;;;;;;5007752;28;20977;-69
2022/10/05 04:10:42;;;;;;;18.17;16.50;;;10.30;97.10;;;;;;5008982;28;20481;-68
2022/10/05 04:13:16;;;;;;;34.53;32.50;;;10.30;97.10;;;;;;4999744;28;20475;-69
2022/10/05 04:15:48;;;;;;;26.97;25.27;;;10.40;97.00;;;;;;5008701;28;20464;-69
2022/10/05 04:18:23;;;;;;;20.97;19.50;;;10.30;97.20;;;;;;5008215;28;20462;-68
2022/10/05 04:20:55;;;;;;;19.97;18.60;;;10.30;97.30;;;;;;5007137;28;20484;-68
2022/10/05 04:23:32;;;;;;;23.07;21.57;;;10.30;97.20;;;;;;5002427;28;20501;-68
2022/10/05 04:26:06;;;;;;;26.97;25.27;;;10.30;97.20;;;;;;4997409;28;20464;-68
2022/10/05 04:28:41;;;;;;;25.07;23.23;;;10.30;97.30;;;;;;5007308;28;20467;-68
2022/10/05 04:31:16;;;;;;;25.60;23.80;;;10.30;97.60;;;;;;5001552;28;20481;-68
2022/10/05 04:33:53;;;;;;;19.50;17.90;;;10.40;97.60;;;;;;5002947;28;20522;-68
2022/10/05 04:36:24;;;;;;;21.80;20.03;;;10.30;97.40;;;;;;4994201;28;20463;-69
2022/10/05 04:39:11;;;;;;;24.77;22.53;;;10.40;97.60;;;;;;4999919;28;20467;-68
2022/10/05 04:41:50;;;;;;;22.60;20.63;;;10.40;97.60;;;;;;5003888;28;20479;-68
2022/10/05 04:44:41;;;;;;;20.37;18.70;;;10.40;97.70;;;;;;4992960;28;20477;-68
2022/10/05 04:47:31;;;;;;;24.43;22.60;;;10.40;97.60;;;;;;5008018;28;20457;-68
2022/10/05 04:50:11;;;;;;;21.77;19.80;;;10.40;97.50;;;;;;5007004;28;20460;-69
2022/10/05 04:52:47;;;;;;;23.67;21.48;;;10.40;97.60;;;;;;5000115;28;20472;-71
2022/10/05 04:55:25;;;;;;;19.43;17.93;;;10.40;97.70;;;;;;4998695;28;20208;-71
2022/10/05 04:58:02;;;;;;;20.37;18.77;;;10.40;97.40;;;;;;5009010;28;20465;-73
2022/10/05 05:00:37;;;;;;;32.07;29.37;;;10.40;97.50;;;;;;5000140;28;20502;-72
2022/10/05 05:03:19;;;;;;;34.50;31.70;;;10.40;97.60;;;;;;5009581;28;20488;-70
2022/10/05 05:06:01;;;;;;;19.80;18.30;;;10.40;97.50;;;;;;5007966;28;20470;-71
2022/10/05 05:08:41;;;;;;;20.30;18.80;;;10.30;97.50;;;;;;5005931;28;20468;-71
2022/10/05 05:11:25;;;;;;;21.73;19.93;;;10.40;97.60;;;;;;5010136;28;20456;-72
2022/10/05 05:14:25;;;;;;;20.87;19.10;;;10.30;97.80;;;;;;4993034;28;20490;-70
2022/10/05 05:17:04;;;;;;;26.03;24.10;;;10.40;97.80;;;;;;5009731;28;20460;-69
2022/10/05 05:19:45;;;;;;;30.13;27.93;;;10.30;97.90;;;;;;4997842;28;20458;-68
2022/10/05 05:22:24;;;;;;;26.20;24.30;;;10.40;97.90;;;;;;5001376;28;20480;-71
2022/10/05 05:25:19;;;;;;;21.23;19.30;;;10.40;98.00;;;;;;5008056;28;20482;-69
2022/10/05 05:27:49;;;;;;;26.97;24.97;;;10.40;98.00;;;;;;5006218;28;20466;-70
2022/10/05 05:30:21;;;;;;;23.33;21.40;;;10.40;98.10;;;;;;5002183;28;20458;-70
2022/10/05 05:33:03;;;;;;;21.90;20.10;;;10.40;98.00;;;;;;5007452;28;20468;-68
2022/10/05 05:36:00;;;;;;;22.13;20.43;;;10.40;98.00;;;;;;4995082;28;20450;-69
2022/10/05 05:38:38;;;;;;;22.37;20.50;;;10.50;97.80;;;;;;5008585;28;20492;-70
2022/10/05 05:41:10;;;;;;;23.23;21.40;;;10.50;97.50;;;;;;5008351;28;20484;-68
2022/10/05 05:44:00;;;;;;;26.60;24.40;;;10.60;97.50;;;;;;4999713;28;20469;-67
2022/10/05 05:46:32;;;;;;;36.07;33.10;;;10.70;97.10;;;;;;4997137;28;20262;-68
2022/10/05 05:49:03;;;;;;;20.77;18.80;;;10.60;96.80;;;;;;5004989;28;20470;-68
2022/10/05 05:51:35;;;;;;;35.83;33.30;;;10.50;97.00;;;;;;5004552;28;20462;-68
2022/10/05 05:54:20;;;;;;;29.50;27.53;;;10.50;97.10;;;;;;5005356;28;20492;-68
2022/10/05 05:56:50;;;;;;;25.03;22.40;;;10.50;97.20;;;;;;5008827;28;20446;-68
2022/10/05 05:59:21;;;;;;;21.30;19.57;;;10.50;97.00;;;;;;5004218;28;20464;-68
2022/10/05 06:01:52;;;;;;;32.50;30.57;;;10.60;97.20;;;;;;4999175;28;20481;-68
2022/10/05 06:04:25;;;;;;;23.10;20.80;;;10.60;97.00;;;;;;5004615;28;20512;-70
2022/10/05 06:06:54;;;;;;;25.47;23.57;;;10.60;96.50;;;;;;5006156;28;20464;-70
2022/10/05 06:09:28;;;;;;;27.37;25.47;;;10.70;96.10;;;;;;4996791;28;20465;-71
2022/10/05 06:11:58;;;;;;;22.30;20.33;;;10.70;96.20;;;;;;4990930;28;20993;-69
2022/10/05 06:14:31;;;;;;;21.67;19.97;;;10.70;96.50;;;;;;5002840;28;20847;-68
2022/10/05 06:17:03;;;;;;;31.37;28.63;;;10.80;96.30;;;;;;4999745;28;20461;-69
2022/10/05 06:19:33;;;;;;;25.50;23.73;;;10.80;96.10;;;;;;4990272;28;20859;-70
2022/10/05 06:22:06;;;;;;;27.47;25.57;;;10.90;95.80;;;;;;4984105;28;21116;-69
2022/10/05 06:24:39;;;;;;;21.23;19.63;;;11.00;95.30;;;;;;5004808;28;20492;-68
2022/10/05 06:27:27;;;;;;;34.60;32.33;;;11.00;94.90;;;;;;4991365;28;20467;-70
2022/10/05 06:30:07;;;;;;;37.30;35.10;;;11.10;94.50;;;;;;5001342;28;20464;-69
2022/10/05 06:32:41;;;;;;;23.30;20.33;;;11.10;94.20;;;;;;4998834;28;20453;-70
2022/10/05 06:35:14;;;;;;;22.37;20.50;;;11.10;94.30;;;;;;4993781;28;20497;-71
2022/10/05 06:37:57;;;;;;;24.03;21.93;;;11.20;94.40;;;;;;4994651;28;20522;-69
2022/10/05 06:40:39;;;;;;;34.63;32.63;;;11.20;94.50;;;;;;5005717;28;20475;-70
2022/10/05 06:43:20;;;;;;;26.40;24.40;;;11.30;94.60;;;;;;4995611;28;20568;-68
2022/10/05 06:46:00;;;;;;;22.93;20.70;;;11.40;94.20;;;;;;4989735;28;20966;-69
2022/10/05 06:48:41;;;;;;;25.03;22.93;;;11.50;93.90;;;;;;4996268;28;20457;-70
2022/10/05 06:51:15;;;;;;;24.67;22.67;;;11.60;93.60;;;;;;4998757;28;20546;-71
2022/10/05 06:53:50;;;;;;;20.87;19.37;;;11.70;93.50;;;;;;5003304;28;20475;-70
2022/10/05 06:56:27;;;;;;;23.50;21.60;;;11.80;93.40;;;;;;5007928;28;20808;-69
2022/10/05 06:58:59;;;;;;;24.47;21.97;;;11.90;92.60;;;;;;5005925;28;20939;-70
2022/10/05 07:01:41;;;;;;;28.87;26.57;;;11.90;92.40;;;;;;4991099;28;20469;-69
2022/10/05 07:04:22;;;;;;;33.37;30.97;;;12.10;92.10;;;;;;5001440;28;21306;-70
2022/10/05 07:06:54;;;;;;;37.00;34.73;;;12.20;91.80;;;;;;5000067;28;20461;-69
2022/10/05 07:09:32;;;;;;;25.10;22.97;;;12.30;91.60;;;;;;5005105;28;20492;-69
2022/10/05 07:12:21;;;;;;;29.43;27.53;;;12.30;90.60;;;;;;4990788;28;20456;-69
2022/10/05 07:15:18;;;;;;;25.70;23.57;;;12.30;90.10;;;;;;4994820;28;20573;-69
2022/10/05 07:17:59;;;;;;;25.27;23.43;;;12.30;90.20;;;;;;4996646;28;20456;-69
2022/10/05 07:20:32;;;;;;;44.17;41.50;;;12.20;90.00;;;;;;5009562;28;21117;-69
2022/10/05 07:23:11;;;;;;;30.50;27.70;;;12.30;90.10;;;;;;5011049;28;20457;-69
2022/10/05 07:25:46;;;;;;;32.03;29.60;;;12.40;89.60;;;;;;5007807;28;20464;-70
2022/10/05 07:28:21;;;;;;;36.50;34.10;;;12.50;89.00;;;;;;4996848;28;20457;-71
2022/10/05 07:30:56;;;;;;;41.47;38.77;;;12.60;88.50;;;;;;4998273;28;20457;-70
2022/10/05 07:33:28;;;;;;;33.77;30.97;;;12.50;88.60;;;;;;4999304;28;20482;-70
2022/10/05 07:38:55;;;;;;;26.67;24.77;;;12.50;88.50;;;;;;5009885;28;20538;-69
2022/10/05 07:41:32;;;;;;;29.80;27.60;;;12.50;89.00;;;;;;5007719;28;20486;-68
2022/10/05 07:44:10;;;;;;;29.67;27.87;;;12.60;88.90;;;;;;5002033;28;20476;-69
2022/10/05 07:46:47;;;;;;;29.10;26.87;;;12.70;88.50;;;;;;5010657;28;20572;-70
2022/10/05 07:49:23;;;;;;;45.93;43.53;;;12.80;88.20;;;;;;5001006;28;20969;-70
2022/10/05 07:51:54;;;;;;;39.73;37.00;;;12.90;88.00;;;;;;5000342;28;20458;-70
2022/10/05 07:54:25;;;;;;;47.70;45.27;;;13.00;87.80;;;;;;5009044;28;20523;-70
2022/10/05 07:57:01;;;;;;;26.60;24.70;;;13.10;87.40;;;;;;5001707;28;20458;-71
2022/10/05 07:59:38;;;;;;;32.57;30.43;;;13.20;87.20;;;;;;4998179;28;21157;-71
2022/10/05 08:02:17;;;;;;;37.23;34.80;;;13.20;86.90;;;;;;5009039;28;21078;-71
2022/10/05 08:04:52;;;;;;;27.60;25.40;;;13.30;86.90;;;;;;4993129;28;20475;-72
2022/10/05 08:07:20;;;;;;;42.10;39.10;;;13.40;86.60;;;;;;4999582;28;20457;-71
2022/10/05 08:09:53;;;;;;;32.20;30.10;;;13.50;86.30;;;;;;4999194;28;20461;-72
2022/10/05 08:12:28;;;;;;;29.00;27.00;;;13.60;86.30;;;;;;5007395;28;20469;-72
2022/10/05 08:15:00;;;;;;;32.30;30.10;;;13.60;85.70;;;;;;5009388;28;20471;-71
2022/10/05 08:17:46;;;;;;;47.73;44.73;;;13.70;85.50;;;;;;5010992;28;20464;-69
2022/10/05 08:20:38;;;;;;;47.00;43.33;;;13.80;85.30;;;;;;4999844;28;20462;-69
2022/10/05 08:23:17;;;;;;;40.43;37.73;;;13.90;84.90;;;;;;4994868;28;20543;-70
2022/10/05 08:26:14;;;;;;;34.77;32.67;;;14.00;84.90;;;;;;4996473;28;20893;-70
2022/10/05 08:28:51;;;;;;;34.03;32.00;;;14.10;84.70;;;;;;4989352;28;20453;-70
2022/10/05 08:31:24;;;;;;;46.00;43.40;;;14.20;83.70;;;;;;4999680;28;20453;-71
2022/10/05 08:33:57;;;;;;;28.20;26.50;;;14.20;83.20;;;;;;4999588;28;20476;-70
2022/10/05 08:36:33;;;;;;;38.60;36.10;;;14.20;83.00;;;;;;4993013;28;20785;-70
2022/10/05 08:39:06;;;;;;;41.03;38.77;;;14.20;83.20;;;;;;4997906;28;20467;-72
2022/10/05 08:42:03;;;;;;;29.90;27.70;;;14.20;83.70;;;;;;4995378;28;20479;-71
2022/10/05 08:45:00;;;;;;;28.33;26.43;;;14.40;83.40;;;;;;4970776;28;20566;-72
2022/10/05 08:47:52;;;;;;;34.20;31.83;;;14.60;82.80;;;;;;4973814;28;20457;-72
2022/10/05 08:50:31;;;;;;;43.37;40.97;;;14.70;82.50;;;;;;5007849;28;20487;-71
2022/10/05 08:53:21;;;;;;;32.03;30.13;;;14.70;82.20;;;;;;5007422;28;21222;-73
2022/10/05 08:56:03;;;;;;;44.77;42.10;;;14.90;81.60;;;;;;5002746;28;20457;-71
2022/10/05 08:59:05;;;;;;;32.07;30.00;;;15.00;81.00;;;;;;4992155;28;20463;-71
2022/10/05 09:01:41;;;;;;;38.23;35.67;;;15.00;81.00;;;;;;4920923;29;20473;-71
2022/10/05 09:04:36;;;;;;;33.30;30.80;;;15.20;80.70;;;;;;4985543;28;20827;-71
2022/10/05 09:07:31;;;;;;;32.27;30.17;;;15.20;80.30;;;;;;4990420;28;20458;-72
2022/10/05 09:10:42;;;;;;;35.40;33.23;;;15.40;80.30;;;;;;5002122;28;20479;-71
2022/10/05 09:13:27;;;;;;;30.93;28.97;;;15.50;80.20;;;;;;5011742;28;20477;-72
2022/10/05 09:16:16;;;;;;;40.33;38.00;;;15.70;79.30;;;;;;5009701;28;20467;-72
2022/10/05 09:19:09;;;;;;;50.30;47.60;;;15.80;79.10;;;;;;5010534;28;20551;-72
2022/10/05 09:21:42;;;;;;;49.73;46.87;;;15.80;79.00;;;;;;5010118;28;20479;-72
2022/10/05 09:24:22;;;;;;;47.33;44.73;;;15.80;79.40;;;;;;5011311;28;20472;-72
2022/10/05 09:27:00;;;;;;;42.03;39.50;;;16.00;79.20;;;;;;5011162;28;20456;-72
2022/10/05 09:30:02;;;;;;;33.83;31.50;;;16.10;78.50;;;;;;5010432;28;20461;-71
2022/10/05 09:32:50;;;;;;;39.13;36.73;;;16.40;77.80;;;;;;5010218;28;20456;-71
2022/10/05 09:35:32;;;;;;;44.87;42.23;;;16.60;77.00;;;;;;5011107;28;20480;-72
2022/10/05 09:38:24;;;;;;;37.73;35.60;;;16.60;76.90;;;;;;5008955;28;20476;-71
2022/10/05 09:41:33;;;;;;;48.83;46.03;;;16.60;76.80;;;;;;5007554;28;20959;-72
2022/10/05 09:44:32;;;;;;;38.50;36.33;;;16.80;76.80;;;;;;4972619;28;20910;-71
2022/10/05 09:47:26;;;;;;;39.57;37.20;;;17.00;76.00;;;;;;5010222;28;20463;-72
2022/10/05 09:50:49;;;;;;;50.80;47.47;;;17.10;75.90;;;;;;5010422;28;20448;-72
2022/10/05 09:53:45;;;;;;;38.40;35.93;;;17.30;75.80;;;;;;4969295;28;21033;-72
2022/10/05 09:56:33;;;;;;;37.47;35.23;;;17.50;74.60;;;;;;5001735;28;20465;-70
2022/10/05 09:59:58;;;;;;;44.27;41.83;;;17.60;74.50;;;;;;5008955;28;20982;-70
2022/10/05 10:02:51;;;;;;;37.90;35.80;;;17.60;74.50;;;;;;4992480;28;20486;-70
2022/10/05 10:05:39;;;;;;;35.10;33.07;;;17.80;74.20;;;;;;4972696;28;20444;-70
2022/10/05 10:08:19;;;;;;;33.87;31.70;;;17.90;74.30;;;;;;5006718;28;20580;-70
2022/10/05 10:11:01;;;;;;;36.20;33.70;;;18.00;74.20;;;;;;5009590;28;20453;-70
2022/10/05 10:14:00;;;;;;;36.73;34.30;;;18.20;73.90;;;;;;5005678;28;20470;-70
2022/10/05 10:16:45;;;;;;;44.33;41.60;;;18.30;73.90;;;;;;5005587;28;20459;-71
2022/10/05 10:19:31;;;;;;;38.23;35.83;;;18.60;73.40;;;;;;5008515;28;20481;-70
2022/10/05 10:22:50;;;;;;;36.57;34.07;;;18.80;73.00;;;;;;5010221;28;20480;-70
2022/10/05 10:25:39;;;;;;;37.87;35.77;;;19.00;72.10;;;;;;5008714;28;20459;-70
2022/10/05 10:28:40;;;;;;;40.60;38.20;;;19.20;71.50;;;;;;5008321;28;20459;-71
2022/10/05 10:31:25;;;;;;;48.33;45.63;;;19.40;71.50;;;;;;5009760;28;20466;-70
2022/10/05 10:34:09;;;;;;;45.47;42.97;;;19.50;71.60;;;;;;5008718;28;20854;-70
2022/10/05 10:37:07;;;;;;;42.27;40.07;;;19.60;71.40;;;;;;4990307;28;20462;-70
2022/10/05 10:39:48;;;;;;;41.63;39.67;;;19.80;71.00;;;;;;4989978;28;20461;-70
2022/10/05 10:42:34;;;;;;;33.87;32.27;;;20.10;70.60;;;;;;4990577;28;20481;-71
2022/10/05 10:45:37;;;;;;;51.73;49.13;;;20.30;69.70;;;;;;5003397;28;20484;-72
2022/10/05 10:48:10;;;;;;;40.17;38.37;;;20.60;69.20;;;;;;5009824;28;20464;-72
2022/10/05 10:51:18;;;;;;;31.80;30.20;;;20.80;68.20;;;;;;5000776;28;20464;-72
2022/10/05 10:54:23;;;;;;;36.73;35.23;;;21.00;67.20;;;;;;4993711;28;20487;-73
2022/10/05 10:57:05;;;;;;;32.53;31.03;;;21.20;65.40;;;;;;4927003;29;20465;-74
2022/10/05 11:00:14;;;;;;;33.67;32.27;;;21.40;65.80;;;;;;4929626;29;20492;-73
2022/10/05 11:03:25;;;;;;;31.40;30.00;;;21.50;65.50;;;;;;4999035;28;20483;-73
2022/10/05 11:06:20;;;;;;;52.67;50.27;;;21.60;65.30;;;;;;4988682;28;20576;-72
2022/10/05 11:09:22;;;;;;;49.43;47.23;;;21.90;65.40;;;;;;5004681;28;20464;-72
2022/10/05 11:12:37;;;;;;;42.83;40.83;;;22.00;65.10;;;;;;5005145;28;20441;-71
2022/10/05 11:15:26;;;;;;;33.07;31.23;;;22.00;65.50;;;;;;4989689;28;20852;-72
2022/10/05 11:18:06;;;;;;;34.57;32.97;;;22.00;65.20;;;;;;4991745;28;20463;-72
2022/10/05 11:21:04;;;;;;;36.40;34.60;;;22.20;65.00;;;;;;4990081;28;20445;-72
2022/10/05 11:24:06;;;;;;;42.57;40.60;;;22.30;64.60;;;;;;4990172;28;21055;-71
2022/10/05 11:26:56;;;;;;;37.20;35.30;;;22.40;64.30;;;;;;4990515;28;20555;-71
2022/10/05 11:30:07;;;;;;;41.63;39.73;;;22.50;63.90;;;;;;5001574;28;20461;-70
2022/10/05 11:33:12;;;;;;;33.03;31.43;;;22.60;63.60;;;;;;4972472;28;20536;-72
2022/10/05 11:35:58;;;;;;;33.03;31.47;;;22.60;63.90;;;;;;4982888;28;20457;-70
2022/10/05 11:39:04;;;;;;;30.50;29.00;;;22.70;63.50;;;;;;4996236;28;20552;-69
2022/10/05 11:42:08;;;;;;;34.10;32.57;;;22.80;63.60;;;;;;5008193;28;20459;-69
2022/10/05 11:45:07;;;;;;;34.67;33.17;;;22.80;63.60;;;;;;4977517;28;20512;-70
2022/10/05 11:47:44;;;;;;;46.33;44.00;;;22.90;63.60;;;;;;4982309;28;20471;-70
2022/10/05 11:50:22;;;;;;;45.90;43.40;;;23.10;63.80;;;;;;5003313;28;20513;-69
2022/10/05 11:52:57;;;;;;;43.73;41.67;;;23.20;63.10;;;;;;4999111;28;20807;-70
2022/10/05 11:55:29;;;;;;;40.03;38.30;;;23.40;63.00;;;;;;4998706;28;20460;-70
2022/10/05 11:57:59;;;;;;;34.40;32.90;;;23.40;63.60;;;;;;4999583;28;20518;-69
2022/10/05 12:00:34;;;;;;;39.20;37.40;;;23.40;63.40;;;;;;5002141;28;20467;-70
2022/10/05 12:03:41;;;;;;;34.47;32.83;;;23.40;63.30;;;;;;5003752;28;21180;-70
2022/10/05 12:06:30;;;;;;;42.37;40.37;;;23.50;62.80;;;;;;4919686;29;20456;-70
2022/10/05 12:09:07;;;;;;;44.17;41.90;;;23.60;62.90;;;;;;4922903;29;20478;-70
2022/10/05 12:11:46;;;;;;;31.90;30.40;;;23.70;62.50;;;;;;4977543;28;20464;-69
2022/10/05 12:14:24;;;;;;;43.67;41.53;;;23.80;62.70;;;;;;4999960;28;20478;-75
2022/10/05 12:16:58;;;;;;;38.13;36.43;;;23.90;62.20;;;;;;5006672;28;20448;-72
2022/10/05 12:19:30;;;;;;;35.17;33.47;;;24.00;62.20;;;;;;5001054;28;20457;-73
2022/10/05 12:22:03;;;;;;;36.77;35.23;;;24.10;61.40;;;;;;5004165;28;20545;-71
2022/10/05 12:25:00;;;;;;;32.30;30.80;;;24.20;61.60;;;;;;5006239;28;20472;-71
2022/10/05 12:27:31;;;;;;;43.27;41.33;;;24.30;60.70;;;;;;5007232;28;20461;-71
2022/10/05 12:30:05;;;;;;;35.40;33.70;;;24.30;60.80;;;;;;5002928;28;20460;-72
2022/10/05 12:32:36;;;;;;;43.07;40.93;;;24.20;61.10;;;;;;5010754;28;20535;-72
2022/10/05 12:35:15;;;;;;;33.03;31.43;;;24.30;61.10;;;;;;5002220;28;20519;-69
2022/10/05 12:37:47;;;;;;;39.90;38.10;;;24.40;60.80;;;;;;5010142;28;20834;-72
2022/10/05 12:40:25;;;;;;;47.33;45.00;;;24.40;60.90;;;;;;5002134;28;20472;-73
2022/10/05 12:43:03;;;;;;;36.93;35.30;;;24.40;61.00;;;;;;5010008;28;20481;-70
2022/10/05 12:45:46;;;;;;;46.77;44.57;;;24.50;61.10;;;;;;5005804;28;20475;-71
2022/10/05 12:48:48;;;;;;;34.00;32.30;;;24.60;60.20;;;;;;5002259;28;20490;-70
2022/10/05 12:51:22;;;;;;;30.70;29.20;;;24.70;59.30;;;;;;4952055;28;20467;-70
2022/10/05 12:53:57;;;;;;;44.27;42.27;;;24.70;59.40;;;;;;5002804;28;20499;-71
2022/10/05 12:56:41;;;;;;;46.87;44.77;;;24.70;58.70;;;;;;5003992;28;20460;-70
2022/10/05 12:59:18;;;;;;;37.23;35.63;;;24.70;58.40;;;;;;4997370;28;20463;-70
2022/10/05 13:01:53;;;;;;;34.50;32.90;;;24.80;57.50;;;;;;4999630;28;20475;-70
2022/10/05 13:04:48;;;;;;;32.47;30.97;;;24.80;55.70;;;;;;5002498;28;20586;-70
2022/10/05 13:07:32;;;;;;;42.20;40.30;;;24.90;55.00;;;;;;5004733;28;20465;-70
2022/10/05 13:10:08;;;;;;;51.37;49.03;;;24.90;53.70;;;;;;4998684;28;20470;-70
2022/10/05 13:12:48;;;;;;;34.83;32.60;;;25.00;52.50;;;;;;5007804;28;20851;-70
2022/10/05 13:15:22;;;;;;;31.00;29.70;;;25.00;52.40;;;;;;5005772;28;20475;-71
2022/10/05 13:18:03;;;;;;;39.43;37.63;;;24.90;52.10;;;;;;5006449;28;20456;-70
2022/10/05 13:20:38;;;;;;;31.97;30.57;;;25.10;52.40;;;;;;5004770;28;20812;-70
2022/10/05 13:23:12;;;;;;;37.40;35.40;;;25.00;52.90;;;;;;5005112;28;20484;-70
2022/10/05 13:25:46;;;;;;;44.80;42.73;;;25.00;53.10;;;;;;4998327;28;20459;-70
2022/10/05 13:28:21;;;;;;;40.17;38.37;;;25.00;53.00;;;;;;5008505;28;20456;-72
2022/10/05 13:31:00;;;;;;;33.03;31.50;;;25.00;52.40;;;;;;5007092;28;20467;-71
2022/10/05 13:33:48;;;;;;;44.23;42.13;;;25.00;52.40;;;;;;5009906;28;20522;-71
2022/10/05 13:36:21;;;;;;;33.27;31.87;;;25.10;51.70;;;;;;5010212;28;20484;-72